sensor_id;sensor_type;location;lat;lon;timestamp;P1;durP1;ratioP1;P2;durP2;ratioP2
78799;SDS011;68148;55.328;86.106;2024-02-23T00:01:54;5.50;;;4.20;;
78799;SDS011;68148;55.328;86.106;2024-02-23T00:04:20;20.48;;;7.90;;
78799;SDS011;68148;55.328;86.106;2024-02-23T00:06:46;5.30;;;4.80;;
78799;SDS011;68148;55.328;86.106;2024-02-23T00:09:12;21.73;;;13.48;;
78799;SDS011;68148;55.328;86.106;2024-02-23T00:11:41;13.60;;;12.20;;
78799;SDS011;68148;55.328;86.106;2024-02-23T00:14:07;10.40;;;9.25;;
78799;SDS011;68148;55.328;86.106;2024-02-23T00:16:37;10.02;;;5.72;;
78799;SDS011;68148;55.328;86.106;2024-02-23T00:19:04;2.88;;;2.35;;
78799;SDS011;68148;55.328;86.106;2024-02-23T00:21:32;21.38;;;11.32;;
78799;SDS011;68148;55.328;86.106;2024-02-23T00:23:58;10.35;;;7.47;;
78799;SDS011;68148;55.328;86.106;2024-02-23T00:26:24;9.65;;;6.18;;
78799;SDS011;68148;55.328;86.106;2024-02-23T00:28:50;5.10;;;3.15;;
78799;SDS011;68148;55.328;86.106;2024-02-23T00:31:17;6.50;;;5.07;;
78799;SDS011;68148;55.328;86.106;2024-02-23T00:33:43;8.63;;;7.13;;
78799;SDS011;68148;55.328;86.106;2024-02-23T00:36:20;19.98;;;8.77;;
78799;SDS011;68148;55.328;86.106;2024-02-23T00:38:47;10.63;;;4.85;;
78799;SDS011;68148;55.328;86.106;2024-02-23T00:41:13;8.52;;;4.20;;
78799;SDS011;68148;55.328;86.106;2024-02-23T00:43:39;3.28;;;2.63;;
78799;SDS011;68148;55.328;86.106;2024-02-23T00:46:07;23.35;;;6.85;;
78799;SDS011;68148;55.328;86.106;2024-02-23T00:48:34;2.05;;;1.85;;
78799;SDS011;68148;55.328;86.106;2024-02-23T00:51:01;11.50;;;4.45;;
78799;SDS011;68148;55.328;86.106;2024-02-23T00:53:27;11.98;;;3.95;;
78799;SDS011;68148;55.328;86.106;2024-02-23T00:55:53;48.05;;;9.77;;
78799;SDS011;68148;55.328;86.106;2024-02-23T00:58:18;3.38;;;3.10;;
78799;SDS011;68148;55.328;86.106;2024-02-23T01:00:47;10.70;;;5.63;;
78799;SDS011;68148;55.328;86.106;2024-02-23T01:03:13;12.35;;;7.95;;
78799;SDS011;68148;55.328;86.106;2024-02-23T01:05:39;12.88;;;10.98;;
78799;SDS011;68148;55.328;86.106;2024-02-23T01:08:05;10.25;;;9.38;;
78799;SDS011;68148;55.328;86.106;2024-02-23T01:10:30;10.65;;;5.03;;
78799;SDS011;68148;55.328;86.106;2024-02-23T01:12:56;6.28;;;4.32;;
78799;SDS011;68148;55.328;86.106;2024-02-23T01:15:22;11.65;;;5.53;;
78799;SDS011;68148;55.328;86.106;2024-02-23T01:17:48;11.55;;;6.57;;
78799;SDS011;68148;55.328;86.106;2024-02-23T01:20:14;21.20;;;11.05;;
78799;SDS011;68148;55.328;86.106;2024-02-23T01:22:40;11.35;;;7.97;;
78799;SDS011;68148;55.328;86.106;2024-02-23T01:25:06;8.27;;;5.68;;
78799;SDS011;68148;55.328;86.106;2024-02-23T01:27:31;5.07;;;3.40;;
78799;SDS011;68148;55.328;86.106;2024-02-23T01:30:09;9.32;;;6.10;;
78799;SDS011;68148;55.328;86.106;2024-02-23T01:32:36;24.70;;;14.10;;
78799;SDS011;68148;55.328;86.106;2024-02-23T01:35:02;12.77;;;11.80;;
78799;SDS011;68148;55.328;86.106;2024-02-23T01:37:28;20.85;;;7.32;;
78799;SDS011;68148;55.328;86.106;2024-02-23T01:39:53;8.20;;;7.47;;
78799;SDS011;68148;55.328;86.106;2024-02-23T01:42:20;16.02;;;14.38;;
78799;SDS011;68148;55.328;86.106;2024-02-23T01:44:46;12.52;;;7.50;;
78799;SDS011;68148;55.328;86.106;2024-02-23T01:47:12;10.27;;;8.38;;
78799;SDS011;68148;55.328;86.106;2024-02-23T01:49:38;17.77;;;9.82;;
78799;SDS011;68148;55.328;86.106;2024-02-23T01:52:04;11.57;;;8.23;;
78799;SDS011;68148;55.328;86.106;2024-02-23T01:54:34;9.90;;;8.75;;
78799;SDS011;68148;55.328;86.106;2024-02-23T01:57:00;20.55;;;15.25;;
78799;SDS011;68148;55.328;86.106;2024-02-23T01:59:26;32.63;;;16.38;;
78799;SDS011;68148;55.328;86.106;2024-02-23T02:01:53;24.45;;;17.05;;
78799;SDS011;68148;55.328;86.106;2024-02-23T02:04:19;24.65;;;16.55;;
78799;SDS011;68148;55.328;86.106;2024-02-23T02:06:51;13.60;;;12.05;;
78799;SDS011;68148;55.328;86.106;2024-02-23T02:09:19;11.73;;;9.18;;
78799;SDS011;68148;55.328;86.106;2024-02-23T02:11:46;22.33;;;13.15;;
78799;SDS011;68148;55.328;86.106;2024-02-23T02:16:51;26.17;;;15.10;;
78799;SDS011;68148;55.328;86.106;2024-02-23T02:19:17;28.55;;;18.40;;
78799;SDS011;68148;55.328;86.106;2024-02-23T02:21:43;37.92;;;23.33;;
78799;SDS011;68148;55.328;86.106;2024-02-23T02:24:11;8.05;;;6.70;;
78799;SDS011;68148;55.328;86.106;2024-02-23T02:26:37;79.80;;;24.95;;
78799;SDS011;68148;55.328;86.106;2024-02-23T02:29:03;19.48;;;11.73;;
78799;SDS011;68148;55.328;86.106;2024-02-23T02:31:28;47.13;;;13.65;;
78799;SDS011;68148;55.328;86.106;2024-02-23T02:33:57;15.57;;;12.80;;
78799;SDS011;68148;55.328;86.106;2024-02-23T02:36:22;14.13;;;10.20;;
78799;SDS011;68148;55.328;86.106;2024-02-23T02:38:48;12.40;;;7.35;;
78799;SDS011;68148;55.328;86.106;2024-02-23T02:41:14;41.60;;;12.65;;
78799;SDS011;68148;55.328;86.106;2024-02-23T02:43:42;27.63;;;14.45;;
78799;SDS011;68148;55.328;86.106;2024-02-23T02:46:08;14.25;;;6.95;;
78799;SDS011;68148;55.328;86.106;2024-02-23T02:48:34;12.48;;;11.18;;
78799;SDS011;68148;55.328;86.106;2024-02-23T02:51:00;33.78;;;9.82;;
78799;SDS011;68148;55.328;86.106;2024-02-23T02:53:25;39.42;;;16.88;;
78799;SDS011;68148;55.328;86.106;2024-02-23T02:55:51;17.95;;;10.90;;
78799;SDS011;68148;55.328;86.106;2024-02-23T02:58:18;12.13;;;11.13;;
78799;SDS011;68148;55.328;86.106;2024-02-23T03:00:45;36.70;;;17.63;;
78799;SDS011;68148;55.328;86.106;2024-02-23T03:03:13;26.70;;;14.25;;
78799;SDS011;68148;55.328;86.106;2024-02-23T03:05:46;40.83;;;15.85;;
78799;SDS011;68148;55.328;86.106;2024-02-23T03:08:12;63.03;;;38.13;;
78799;SDS011;68148;55.328;86.106;2024-02-23T03:10:41;59.08;;;26.85;;
78799;SDS011;68148;55.328;86.106;2024-02-23T03:13:09;22.77;;;12.60;;
78799;SDS011;68148;55.328;86.106;2024-02-23T03:15:35;57.10;;;29.67;;
78799;SDS011;68148;55.328;86.106;2024-02-23T03:18:04;33.97;;;30.08;;
78799;SDS011;68148;55.328;86.106;2024-02-23T03:20:33;75.13;;;40.88;;
78799;SDS011;68148;55.328;86.106;2024-02-23T03:22:58;62.78;;;29.52;;
78799;SDS011;68148;55.328;86.106;2024-02-23T03:25:26;33.10;;;25.60;;
78799;SDS011;68148;55.328;86.106;2024-02-23T03:27:51;88.68;;;35.97;;
78799;SDS011;68148;55.328;86.106;2024-02-23T03:30:17;54.63;;;33.00;;
78799;SDS011;68148;55.328;86.106;2024-02-23T03:32:43;40.45;;;33.10;;
78799;SDS011;68148;55.328;86.106;2024-02-23T03:35:12;25.90;;;20.00;;
78799;SDS011;68148;55.328;86.106;2024-02-23T03:37:38;65.28;;;36.97;;
78799;SDS011;68148;55.328;86.106;2024-02-23T03:40:08;48.80;;;26.20;;
78799;SDS011;68148;55.328;86.106;2024-02-23T03:42:34;22.38;;;10.82;;
78799;SDS011;68148;55.328;86.106;2024-02-23T03:45:00;25.80;;;20.38;;
78799;SDS011;68148;55.328;86.106;2024-02-23T03:47:26;37.67;;;19.40;;
78799;SDS011;68148;55.328;86.106;2024-02-23T03:49:52;39.00;;;25.65;;
78799;SDS011;68148;55.328;86.106;2024-02-23T03:52:20;35.53;;;20.77;;
78799;SDS011;68148;55.328;86.106;2024-02-23T03:54:46;25.70;;;14.25;;
78799;SDS011;68148;55.328;86.106;2024-02-23T03:57:12;30.15;;;14.80;;
78799;SDS011;68148;55.328;86.106;2024-02-23T03:59:55;24.45;;;18.25;;
78799;SDS011;68148;55.328;86.106;2024-02-23T04:02:22;14.00;;;9.98;;
78799;SDS011;68148;55.328;86.106;2024-02-23T04:04:48;6.55;;;5.82;;
78799;SDS011;68148;55.328;86.106;2024-02-23T04:07:14;6.38;;;6.00;;
78799;SDS011;68148;55.328;86.106;2024-02-23T04:09:40;33.60;;;17.38;;
78799;SDS011;68148;55.328;86.106;2024-02-23T04:12:07;37.47;;;16.50;;
78799;SDS011;68148;55.328;86.106;2024-02-23T04:14:33;48.75;;;26.15;;
78799;SDS011;68148;55.328;86.106;2024-02-23T04:17:00;9.10;;;8.13;;
78799;SDS011;68148;55.328;86.106;2024-02-23T04:19:25;12.65;;;7.40;;
78799;SDS011;68148;55.328;86.106;2024-02-23T04:21:51;17.13;;;8.15;;
78799;SDS011;68148;55.328;86.106;2024-02-23T04:24:17;10.13;;;4.57;;
78799;SDS011;68148;55.328;86.106;2024-02-23T04:26:43;7.65;;;4.22;;
78799;SDS011;68148;55.328;86.106;2024-02-23T04:29:11;0.82;;;0.68;;
78799;SDS011;68148;55.328;86.106;2024-02-23T04:31:40;8.30;;;4.68;;
78799;SDS011;68148;55.328;86.106;2024-02-23T04:34:06;7.45;;;4.32;;
78799;SDS011;68148;55.328;86.106;2024-02-23T04:36:32;23.17;;;5.25;;
78799;SDS011;68148;55.328;86.106;2024-02-23T04:38:58;2.47;;;1.27;;
78799;SDS011;68148;55.328;86.106;2024-02-23T04:41:24;19.92;;;9.65;;
78799;SDS011;68148;55.328;86.106;2024-02-23T04:43:50;5.68;;;4.07;;
78799;SDS011;68148;55.328;86.106;2024-02-23T04:46:19;3.83;;;3.50;;
78799;SDS011;68148;55.328;86.106;2024-02-23T04:48:45;4.82;;;0.80;;
78799;SDS011;68148;55.328;86.106;2024-02-23T04:51:12;7.15;;;3.08;;
78799;SDS011;68148;55.328;86.106;2024-02-23T04:53:38;14.55;;;5.35;;
78799;SDS011;68148;55.328;86.106;2024-02-23T04:56:04;7.38;;;4.30;;
78799;SDS011;68148;55.328;86.106;2024-02-23T04:58:36;5.70;;;4.03;;
78799;SDS011;68148;55.328;86.106;2024-02-23T05:01:09;4.28;;;3.35;;
78799;SDS011;68148;55.328;86.106;2024-02-23T05:03:37;8.50;;;5.57;;
78799;SDS011;68148;55.328;86.106;2024-02-23T05:06:07;19.73;;;6.30;;
78799;SDS011;68148;55.328;86.106;2024-02-23T05:08:36;30.42;;;7.38;;
78799;SDS011;68148;55.328;86.106;2024-02-23T05:11:02;18.55;;;9.30;;
78799;SDS011;68148;55.328;86.106;2024-02-23T05:13:28;30.60;;;14.10;;
78799;SDS011;68148;55.328;86.106;2024-02-23T05:15:57;15.55;;;5.85;;
78799;SDS011;68148;55.328;86.106;2024-02-23T05:18:23;12.98;;;6.32;;
78799;SDS011;68148;55.328;86.106;2024-02-23T05:20:49;20.25;;;4.55;;
78799;SDS011;68148;55.328;86.106;2024-02-23T05:23:15;17.85;;;8.18;;
78799;SDS011;68148;55.328;86.106;2024-02-23T05:25:41;11.90;;;6.25;;
78799;SDS011;68148;55.328;86.106;2024-02-23T05:28:08;6.72;;;2.63;;
78799;SDS011;68148;55.328;86.106;2024-02-23T05:30:34;8.77;;;4.00;;
78799;SDS011;68148;55.328;86.106;2024-02-23T05:33:00;11.68;;;3.90;;
78799;SDS011;68148;55.328;86.106;2024-02-23T05:35:26;9.20;;;5.05;;
78799;SDS011;68148;55.328;86.106;2024-02-23T05:37:53;7.53;;;2.92;;
78799;SDS011;68148;55.328;86.106;2024-02-23T05:40:19;14.02;;;1.88;;
78799;SDS011;68148;55.328;86.106;2024-02-23T05:42:46;11.63;;;3.30;;
78799;SDS011;68148;55.328;86.106;2024-02-23T05:45:12;5.85;;;3.22;;
78799;SDS011;68148;55.328;86.106;2024-02-23T05:47:38;6.95;;;3.85;;
78799;SDS011;68148;55.328;86.106;2024-02-23T05:50:08;19.70;;;6.95;;
78799;SDS011;68148;55.328;86.106;2024-02-23T05:52:37;8.45;;;4.70;;
78799;SDS011;68148;55.328;86.106;2024-02-23T05:55:16;5.05;;;3.03;;
78799;SDS011;68148;55.328;86.106;2024-02-23T05:57:42;7.15;;;4.78;;
78799;SDS011;68148;55.328;86.106;2024-02-23T06:00:11;3.92;;;1.20;;
78799;SDS011;68148;55.328;86.106;2024-02-23T06:02:37;3.97;;;3.42;;
78799;SDS011;68148;55.328;86.106;2024-02-23T06:05:04;7.18;;;2.85;;
78799;SDS011;68148;55.328;86.106;2024-02-23T06:07:30;11.10;;;3.72;;
78799;SDS011;68148;55.328;86.106;2024-02-23T06:09:57;4.93;;;2.17;;
78799;SDS011;68148;55.328;86.106;2024-02-23T06:12:23;3.88;;;1.67;;
78799;SDS011;68148;55.328;86.106;2024-02-23T06:14:50;1.35;;;1.25;;
78799;SDS011;68148;55.328;86.106;2024-02-23T06:17:17;4.95;;;2.25;;
78799;SDS011;68148;55.328;86.106;2024-02-23T06:19:49;3.75;;;1.77;;
78799;SDS011;68148;55.328;86.106;2024-02-23T06:22:17;0.70;;;0.70;;
78799;SDS011;68148;55.328;86.106;2024-02-23T06:24:46;2.85;;;1.95;;
78799;SDS011;68148;55.328;86.106;2024-02-23T06:27:14;12.40;;;3.85;;
78799;SDS011;68148;55.328;86.106;2024-02-23T06:29:40;1.95;;;1.25;;
78799;SDS011;68148;55.328;86.106;2024-02-23T06:32:08;5.55;;;1.48;;
78799;SDS011;68148;55.328;86.106;2024-02-23T06:34:36;10.73;;;2.92;;
78799;SDS011;68148;55.328;86.106;2024-02-23T06:37:02;3.75;;;2.50;;
78799;SDS011;68148;55.328;86.106;2024-02-23T06:39:28;2.67;;;2.05;;
78799;SDS011;68148;55.328;86.106;2024-02-23T06:41:54;5.72;;;3.63;;
78799;SDS011;68148;55.328;86.106;2024-02-23T06:44:20;2.00;;;1.60;;
78799;SDS011;68148;55.328;86.106;2024-02-23T06:46:45;33.58;;;5.78;;
78799;SDS011;68148;55.328;86.106;2024-02-23T06:49:11;1.20;;;0.80;;
78799;SDS011;68148;55.328;86.106;2024-02-23T06:51:38;6.90;;;3.63;;
78799;SDS011;68148;55.328;86.106;2024-02-23T06:54:04;7.28;;;3.70;;
78799;SDS011;68148;55.328;86.106;2024-02-23T06:56:30;6.82;;;1.85;;
78799;SDS011;68148;55.328;86.106;2024-02-23T06:58:56;1.55;;;0.90;;
78799;SDS011;68148;55.328;86.106;2024-02-23T07:01:22;2.42;;;1.02;;
78799;SDS011;68148;55.328;86.106;2024-02-23T07:03:47;7.60;;;2.60;;
78799;SDS011;68148;55.328;86.106;2024-02-23T07:06:22;3.03;;;2.03;;
78799;SDS011;68148;55.328;86.106;2024-02-23T07:08:48;2.50;;;2.33;;
78799;SDS011;68148;55.328;86.106;2024-02-23T07:11:14;2.00;;;1.73;;
78799;SDS011;68148;55.328;86.106;2024-02-23T07:13:42;2.30;;;2.13;;
78799;SDS011;68148;55.328;86.106;2024-02-23T07:16:09;2.28;;;2.10;;
78799;SDS011;68148;55.328;86.106;2024-02-23T07:18:34;2.67;;;1.42;;
78799;SDS011;68148;55.328;86.106;2024-02-23T07:21:01;2.97;;;1.38;;
78799;SDS011;68148;55.328;86.106;2024-02-23T07:23:27;4.68;;;4.32;;
78799;SDS011;68148;55.328;86.106;2024-02-23T07:25:52;1.48;;;1.15;;
78799;SDS011;68148;55.328;86.106;2024-02-23T07:28:19;5.18;;;3.17;;
78799;SDS011;68148;55.328;86.106;2024-02-23T07:30:45;1.25;;;1.23;;
78799;SDS011;68148;55.328;86.106;2024-02-23T07:33:12;7.22;;;1.95;;
78799;SDS011;68148;55.328;86.106;2024-02-23T07:35:38;1.48;;;1.35;;
78799;SDS011;68148;55.328;86.106;2024-02-23T07:38:04;6.22;;;4.47;;
78799;SDS011;68148;55.328;86.106;2024-02-23T07:40:30;4.28;;;2.58;;
78799;SDS011;68148;55.328;86.106;2024-02-23T07:42:59;4.90;;;2.92;;
78799;SDS011;68148;55.328;86.106;2024-02-23T07:45:25;3.42;;;2.80;;
78799;SDS011;68148;55.328;86.106;2024-02-23T07:47:51;3.58;;;1.67;;
78799;SDS011;68148;55.328;86.106;2024-02-23T07:50:17;3.53;;;1.95;;
78799;SDS011;68148;55.328;86.106;2024-02-23T07:52:43;6.43;;;3.55;;
78799;SDS011;68148;55.328;86.106;2024-02-23T07:55:09;4.70;;;3.13;;
78799;SDS011;68148;55.328;86.106;2024-02-23T07:57:35;11.90;;;4.65;;
78799;SDS011;68148;55.328;86.106;2024-02-23T08:00:01;4.88;;;2.78;;
78799;SDS011;68148;55.328;86.106;2024-02-23T08:02:27;6.25;;;4.72;;
78799;SDS011;68148;55.328;86.106;2024-02-23T08:04:52;2.83;;;2.42;;
78799;SDS011;68148;55.328;86.106;2024-02-23T08:07:18;1.92;;;1.63;;
78799;SDS011;68148;55.328;86.106;2024-02-23T08:09:44;7.88;;;4.03;;
78799;SDS011;68148;55.328;86.106;2024-02-23T08:12:10;1.52;;;1.42;;
78799;SDS011;68148;55.328;86.106;2024-02-23T08:14:36;6.18;;;4.47;;
78799;SDS011;68148;55.328;86.106;2024-02-23T08:17:03;9.82;;;4.63;;
78799;SDS011;68148;55.328;86.106;2024-02-23T08:19:29;2.47;;;1.92;;
78799;SDS011;68148;55.328;86.106;2024-02-23T08:21:55;4.90;;;4.45;;
78799;SDS011;68148;55.328;86.106;2024-02-23T08:24:22;5.90;;;3.97;;
78799;SDS011;68148;55.328;86.106;2024-02-23T08:26:48;12.80;;;1.50;;
78799;SDS011;68148;55.328;86.106;2024-02-23T08:29:20;4.80;;;3.90;;
78799;SDS011;68148;55.328;86.106;2024-02-23T08:31:51;10.10;;;4.22;;
78799;SDS011;68148;55.328;86.106;2024-02-23T08:34:16;14.77;;;6.20;;
78799;SDS011;68148;55.328;86.106;2024-02-23T08:36:42;4.60;;;2.92;;
78799;SDS011;68148;55.328;86.106;2024-02-23T08:39:08;28.80;;;21.35;;
78799;SDS011;68148;55.328;86.106;2024-02-23T08:41:34;1.00;;;0.98;;
78799;SDS011;68148;55.328;86.106;2024-02-23T08:44:00;2.45;;;1.42;;
78799;SDS011;68148;55.328;86.106;2024-02-23T08:46:26;3.08;;;1.88;;
78799;SDS011;68148;55.328;86.106;2024-02-23T08:49:06;7.43;;;2.67;;
78799;SDS011;68148;55.328;86.106;2024-02-23T08:51:32;1.63;;;1.23;;
78799;SDS011;68148;55.328;86.106;2024-02-23T08:53:57;3.83;;;1.30;;
78799;SDS011;68148;55.328;86.106;2024-02-23T08:56:23;5.95;;;4.25;;
78799;SDS011;68148;55.328;86.106;2024-02-23T08:58:49;18.88;;;1.98;;
78799;SDS011;68148;55.328;86.106;2024-02-23T09:01:23;10.77;;;4.60;;
78799;SDS011;68148;55.328;86.106;2024-02-23T09:03:48;14.15;;;2.53;;
78799;SDS011;68148;55.328;86.106;2024-02-23T09:06:14;6.10;;;1.25;;
78799;SDS011;68148;55.328;86.106;2024-02-23T09:08:40;3.78;;;2.53;;
78799;SDS011;68148;55.328;86.106;2024-02-23T09:11:06;6.07;;;2.13;;
78799;SDS011;68148;55.328;86.106;2024-02-23T09:13:34;3.40;;;1.60;;
78799;SDS011;68148;55.328;86.106;2024-02-23T09:16:01;3.22;;;1.70;;
78799;SDS011;68148;55.328;86.106;2024-02-23T09:18:27;2.30;;;1.98;;
78799;SDS011;68148;55.328;86.106;2024-02-23T09:21:02;1.65;;;1.10;;
78799;SDS011;68148;55.328;86.106;2024-02-23T09:23:28;3.17;;;2.28;;
78799;SDS011;68148;55.328;86.106;2024-02-23T09:25:55;0.75;;;0.70;;
78799;SDS011;68148;55.328;86.106;2024-02-23T09:28:21;26.60;;;2.95;;
78799;SDS011;68148;55.328;86.106;2024-02-23T09:30:47;2.05;;;1.27;;
78799;SDS011;68148;55.328;86.106;2024-02-23T09:33:13;6.03;;;3.40;;
78799;SDS011;68148;55.328;86.106;2024-02-23T09:35:39;1.73;;;0.93;;
78799;SDS011;68148;55.328;86.106;2024-02-23T09:38:05;3.33;;;1.98;;
78799;SDS011;68148;55.328;86.106;2024-02-23T09:40:31;5.22;;;4.82;;
78799;SDS011;68148;55.328;86.106;2024-02-23T09:42:57;7.03;;;3.00;;
78799;SDS011;68148;55.328;86.106;2024-02-23T09:45:26;2.22;;;1.85;;
78799;SDS011;68148;55.328;86.106;2024-02-23T09:50:22;4.35;;;2.40;;
78799;SDS011;68148;55.328;86.106;2024-02-23T09:52:49;1.27;;;0.65;;
78799;SDS011;68148;55.328;86.106;2024-02-23T09:55:18;5.13;;;2.63;;
78799;SDS011;68148;55.328;86.106;2024-02-23T09:57:45;13.38;;;2.35;;
78799;SDS011;68148;55.328;86.106;2024-02-23T10:00:17;1.98;;;1.77;;
78799;SDS011;68148;55.328;86.106;2024-02-23T10:05:12;0.70;;;0.65;;
78799;SDS011;68148;55.328;86.106;2024-02-23T10:07:41;3.72;;;1.38;;
78799;SDS011;68148;55.328;86.106;2024-02-23T10:10:08;4.85;;;2.15;;
78799;SDS011;68148;55.328;86.106;2024-02-23T10:12:34;1.58;;;1.38;;
78799;SDS011;68148;55.328;86.106;2024-02-23T10:15:02;13.75;;;4.35;;
78799;SDS011;68148;55.328;86.106;2024-02-23T10:17:29;7.22;;;3.97;;
78799;SDS011;68148;55.328;86.106;2024-02-23T10:19:58;1.58;;;1.02;;
78799;SDS011;68148;55.328;86.106;2024-02-23T10:22:24;3.42;;;1.80;;
78799;SDS011;68148;55.328;86.106;2024-02-23T10:24:51;6.65;;;2.42;;
78799;SDS011;68148;55.328;86.106;2024-02-23T10:27:16;20.08;;;4.88;;
78799;SDS011;68148;55.328;86.106;2024-02-23T10:29:42;2.33;;;2.17;;
78799;SDS011;68148;55.328;86.106;2024-02-23T10:32:09;9.98;;;4.45;;
78799;SDS011;68148;55.328;86.106;2024-02-23T10:34:41;1.42;;;1.13;;
78799;SDS011;68148;55.328;86.106;2024-02-23T10:37:08;3.67;;;1.55;;
78799;SDS011;68148;55.328;86.106;2024-02-23T10:39:47;2.60;;;2.00;;
78799;SDS011;68148;55.328;86.106;2024-02-23T10:42:19;15.27;;;7.88;;
78799;SDS011;68148;55.328;86.106;2024-02-23T10:45:05;8.00;;;3.00;;
78799;SDS011;68148;55.328;86.106;2024-02-23T10:47:42;11.07;;;6.43;;
78799;SDS011;68148;55.328;86.106;2024-02-23T10:50:08;20.33;;;9.00;;
78799;SDS011;68148;55.328;86.106;2024-02-23T10:52:35;7.70;;;5.80;;
78799;SDS011;68148;55.328;86.106;2024-02-23T10:55:02;3.08;;;2.42;;
78799;SDS011;68148;55.328;86.106;2024-02-23T10:57:31;20.63;;;9.15;;
78799;SDS011;68148;55.328;86.106;2024-02-23T10:59:58;11.82;;;8.52;;
78799;SDS011;68148;55.328;86.106;2024-02-23T11:02:27;30.45;;;9.25;;
78799;SDS011;68148;55.328;86.106;2024-02-23T11:04:57;28.08;;;13.18;;
78799;SDS011;68148;55.328;86.106;2024-02-23T11:07:24;20.42;;;13.55;;
78799;SDS011;68148;55.328;86.106;2024-02-23T11:10:04;7.95;;;6.53;;
78799;SDS011;68148;55.328;86.106;2024-02-23T11:12:31;31.85;;;14.43;;
78799;SDS011;68148;55.328;86.106;2024-02-23T11:14:59;43.47;;;20.27;;
78799;SDS011;68148;55.328;86.106;2024-02-23T11:17:28;20.90;;;12.30;;
78799;SDS011;68148;55.328;86.106;2024-02-23T11:19:55;30.23;;;14.90;;
78799;SDS011;68148;55.328;86.106;2024-02-23T11:22:25;34.85;;;15.50;;
78799;SDS011;68148;55.328;86.106;2024-02-23T11:25:07;19.15;;;11.38;;
78799;SDS011;68148;55.328;86.106;2024-02-23T11:27:33;26.73;;;16.63;;
78799;SDS011;68148;55.328;86.106;2024-02-23T11:30:01;19.20;;;14.43;;
78799;SDS011;68148;55.328;86.106;2024-02-23T11:32:38;39.72;;;21.70;;
78799;SDS011;68148;55.328;86.106;2024-02-23T11:35:06;18.40;;;14.63;;
78799;SDS011;68148;55.328;86.106;2024-02-23T11:37:53;18.63;;;16.85;;
78799;SDS011;68148;55.328;86.106;2024-02-23T11:40:20;25.38;;;12.20;;
78799;SDS011;68148;55.328;86.106;2024-02-23T11:42:47;32.08;;;19.13;;
78799;SDS011;68148;55.328;86.106;2024-02-23T11:45:13;42.60;;;24.85;;
78799;SDS011;68148;55.328;86.106;2024-02-23T11:47:39;41.25;;;23.30;;
78799;SDS011;68148;55.328;86.106;2024-02-23T11:50:07;70.90;;;34.70;;
78799;SDS011;68148;55.328;86.106;2024-02-23T11:52:34;39.03;;;25.27;;
78799;SDS011;68148;55.328;86.106;2024-02-23T11:55:06;77.25;;;32.13;;
78799;SDS011;68148;55.328;86.106;2024-02-23T11:57:33;74.57;;;35.30;;
78799;SDS011;68148;55.328;86.106;2024-02-23T12:00:00;57.85;;;36.80;;
78799;SDS011;68148;55.328;86.106;2024-02-23T12:02:35;78.20;;;44.75;;
78799;SDS011;68148;55.328;86.106;2024-02-23T12:05:01;65.07;;;41.88;;
78799;SDS011;68148;55.328;86.106;2024-02-23T12:07:30;126.95;;;50.90;;
78799;SDS011;68148;55.328;86.106;2024-02-23T12:09:57;59.10;;;36.90;;
78799;SDS011;68148;55.328;86.106;2024-02-23T12:12:25;87.78;;;45.42;;
78799;SDS011;68148;55.328;86.106;2024-02-23T12:14:51;79.68;;;42.53;;
78799;SDS011;68148;55.328;86.106;2024-02-23T12:17:18;39.00;;;25.73;;
78799;SDS011;68148;55.328;86.106;2024-02-23T12:19:45;60.78;;;37.47;;
78799;SDS011;68148;55.328;86.106;2024-02-23T12:22:13;83.60;;;43.05;;
78799;SDS011;68148;55.328;86.106;2024-02-23T12:24:42;38.13;;;24.05;;
78799;SDS011;68148;55.328;86.106;2024-02-23T12:27:27;81.68;;;43.35;;
78799;SDS011;68148;55.328;86.106;2024-02-23T12:29:56;84.90;;;40.42;;
78799;SDS011;68148;55.328;86.106;2024-02-23T12:32:22;88.25;;;44.05;;
78799;SDS011;68148;55.328;86.106;2024-02-23T12:34:48;80.07;;;43.92;;
78799;SDS011;68148;55.328;86.106;2024-02-23T12:37:15;71.57;;;40.15;;
78799;SDS011;68148;55.328;86.106;2024-02-23T12:39:41;79.28;;;38.47;;
78799;SDS011;68148;55.328;86.106;2024-02-23T12:42:07;65.63;;;32.55;;
78799;SDS011;68148;55.328;86.106;2024-02-23T12:44:33;56.17;;;30.10;;
78799;SDS011;68148;55.328;86.106;2024-02-23T12:46:59;46.22;;;27.77;;
78799;SDS011;68148;55.328;86.106;2024-02-23T12:49:25;23.85;;;17.88;;
78799;SDS011;68148;55.328;86.106;2024-02-23T12:51:51;29.40;;;18.75;;
78799;SDS011;68148;55.328;86.106;2024-02-23T12:54:17;37.50;;;23.42;;
78799;SDS011;68148;55.328;86.106;2024-02-23T12:56:43;20.08;;;16.75;;
78799;SDS011;68148;55.328;86.106;2024-02-23T12:59:09;20.35;;;15.35;;
78799;SDS011;68148;55.328;86.106;2024-02-23T13:01:35;20.50;;;15.75;;
78799;SDS011;68148;55.328;86.106;2024-02-23T13:04:02;8.88;;;8.02;;
78799;SDS011;68148;55.328;86.106;2024-02-23T13:06:28;16.77;;;12.45;;
78799;SDS011;68148;55.328;86.106;2024-02-23T13:08:55;15.38;;;13.68;;
78799;SDS011;68148;55.328;86.106;2024-02-23T13:11:21;20.80;;;14.80;;
78799;SDS011;68148;55.328;86.106;2024-02-23T13:13:46;27.63;;;13.98;;
78799;SDS011;68148;55.328;86.106;2024-02-23T13:16:13;13.98;;;10.90;;
78799;SDS011;68148;55.328;86.106;2024-02-23T13:18:42;5.03;;;4.60;;
78799;SDS011;68148;55.328;86.106;2024-02-23T13:21:08;45.03;;;24.25;;
78799;SDS011;68148;55.328;86.106;2024-02-23T13:23:34;10.73;;;8.90;;
78799;SDS011;68148;55.328;86.106;2024-02-23T13:26:01;23.60;;;11.70;;
78799;SDS011;68148;55.328;86.106;2024-02-23T13:28:28;35.33;;;14.70;;
78799;SDS011;68148;55.328;86.106;2024-02-23T13:30:55;12.93;;;7.90;;
78799;SDS011;68148;55.328;86.106;2024-02-23T13:33:20;14.90;;;7.88;;
78799;SDS011;68148;55.328;86.106;2024-02-23T13:35:46;13.43;;;10.52;;
78799;SDS011;68148;55.328;86.106;2024-02-23T13:38:13;12.25;;;10.43;;
78799;SDS011;68148;55.328;86.106;2024-02-23T13:40:38;3.50;;;3.20;;
78799;SDS011;68148;55.328;86.106;2024-02-23T13:43:07;19.90;;;10.90;;
78799;SDS011;68148;55.328;86.106;2024-02-23T13:45:47;25.88;;;17.95;;
78799;SDS011;68148;55.328;86.106;2024-02-23T13:48:16;30.95;;;17.45;;
78799;SDS011;68148;55.328;86.106;2024-02-23T13:50:47;23.08;;;14.32;;
78799;SDS011;68148;55.328;86.106;2024-02-23T13:53:14;11.07;;;6.93;;
78799;SDS011;68148;55.328;86.106;2024-02-23T13:55:41;24.33;;;14.18;;
78799;SDS011;68148;55.328;86.106;2024-02-23T13:58:07;35.88;;;24.00;;
78799;SDS011;68148;55.328;86.106;2024-02-23T14:00:42;24.63;;;17.13;;
78799;SDS011;68148;55.328;86.106;2024-02-23T14:03:08;50.20;;;23.42;;
78799;SDS011;68148;55.328;86.106;2024-02-23T14:05:35;43.85;;;14.25;;
78799;SDS011;68148;55.328;86.106;2024-02-23T14:08:01;35.42;;;16.65;;
78799;SDS011;68148;55.328;86.106;2024-02-23T14:10:27;11.90;;;10.73;;
78799;SDS011;68148;55.328;86.106;2024-02-23T14:12:53;20.35;;;15.55;;
78799;SDS011;68148;55.328;86.106;2024-02-23T14:15:19;22.58;;;16.75;;
78799;SDS011;68148;55.328;86.106;2024-02-23T14:17:48;18.02;;;13.38;;
78799;SDS011;68148;55.328;86.106;2024-02-23T14:20:21;35.78;;;15.02;;
78799;SDS011;68148;55.328;86.106;2024-02-23T14:22:47;23.90;;;16.92;;
78799;SDS011;68148;55.328;86.106;2024-02-23T14:25:13;27.45;;;23.05;;
78799;SDS011;68148;55.328;86.106;2024-02-23T14:27:41;28.52;;;16.58;;
78799;SDS011;68148;55.328;86.106;2024-02-23T14:30:07;45.80;;;25.13;;